Time;durP1;ratioP1;P1;durP2;ratioP2;P2;SDS_P1;SDS_P2;PMS_P1;PMS_P2;Temp;Humidity;BMP_temperature;BMP_pressure;BME280_temperature;BME280_humidity;BME280_pressure;Samples;Min_cycle;Max_cycle;Signal;HPM_P1;HPM_P2
2022/04/30 00:02:13;;;;;;;36.30;15.00;;;;;;;6.46;50.65;99871.14;109181;1278;22400;-83
2022/04/30 00:05:28;;;;;;;;;;;;;;;;;;;;;
2022/04/30 00:08:12;;;;;;;40.10;17.40;;;;;;;6.37;50.55;99865.52;109350;1277;23214;-83
2022/04/30 00:10:42;;;;;;;43.50;17.70;;;;;;;6.24;50.74;99866.56;109027;1279;22352;-83
2022/04/30 00:13:12;;;;;;;40.50;17.70;;;;;;;6.12;51.11;99867.05;108798;1281;22500;-83
2022/04/30 00:16:16;;;;;;;42.90;17.50;;;;;;;5.99;51.28;99867.58;108872;1281;23642;-83
2022/04/30 00:19:21;;;;;;;38.90;16.60;;;;;;;5.90;51.26;99869.02;108789;1282;22482;-83
2022/04/30 00:22:34;;;;;;;;;;;;;;;;;;;;;
2022/04/30 00:25:37;;;;;;;49.20;20.20;;;;;;;5.76;51.69;99867.08;108688;1283;23145;-83
2022/04/30 00:28:51;;;;;;;46.30;18.50;;;;;;;5.78;51.55;99868.07;108662;1283;22453;-83
2022/04/30 00:31:39;;;;;;;46.50;17.40;;;;;;;5.79;51.72;99864.83;108486;1284;22208;-83
2022/04/30 00:34:26;;;;;;;42.20;16.70;;;;;;;5.87;51.47;99865.75;108656;1283;22443;-83
2022/04/30 00:36:53;;;;;;;41.60;18.00;;;;;;;5.95;51.92;99864.93;108636;1283;23052;-83
2022/04/30 00:40:00;;;;;;;;;;;;;;;;;;;;;
2022/04/30 00:43:16;;;;;;;46.70;17.70;;;;;;;5.95;52.18;99866.52;108689;1283;23250;-83
2022/04/30 00:46:27;;;;;;;37.80;17.20;;;;;;;5.92;52.13;99865.92;108522;1284;22319;-83
2022/04/30 00:50:13;;;;;;;41.70;17.20;;;;;;;5.89;52.16;99865.84;108850;1279;23345;-83
2022/04/30 00:52:25;;;;;;;38.90;16.60;;;;;;;5.85;51.96;99866.34;108183;1287;23509;-83
2022/04/30 00:54:59;;;;;;;40.70;16.00;;;;;;;5.82;52.21;99859.58;108386;1287;22381;-83
2022/04/30 00:58:19;;;;;;;38.70;17.20;;;;;;;5.80;52.04;99860.75;108271;1287;22242;-83
2022/04/30 01:01:10;;;;;;;41.00;15.90;;;;;;;5.77;52.27;99857.83;108222;1286;22310;-83
2022/04/30 01:05:02;;;;;;;33.90;15.10;;;;;;;5.75;52.21;99860.02;107966;1286;22575;-83
2022/04/30 01:07:18;;;;;;;34.20;15.20;;;;;;;5.72;52.30;99856.64;108324;1287;22547;-83
2022/04/30 01:09:55;;;;;;;35.20;15.00;;;;;;;5.71;52.34;99857.90;108374;1285;22431;-83
2022/04/30 01:12:31;;;;;;;33.50;14.20;;;;;;;5.68;52.59;99853.42;108315;1287;23405;-83
2022/04/30 01:14:59;;;;;;;34.80;14.40;;;;;;;5.66;52.66;99851.57;108128;1287;22294;-83
2022/04/30 01:17:58;;;;;;;35.10;14.90;;;;;;;5.62;52.70;99855.25;108338;1287;22540;-83
2022/04/30 01:21:01;;;;;;;34.20;14.10;;;;;;;5.57;52.80;99854.22;108321;1287;22304;-83
2022/04/30 01:23:43;;;;;;;38.90;16.10;;;;;;;5.53;52.62;99852.95;108502;1286;23232;-82
2022/04/30 01:26:27;;;;;;;109.10;37.80;;;;;;;5.52;52.72;99852.46;108338;1287;22510;-83
2022/04/30 01:29:30;;;;;;;;;;;;;;;;;;;;;
2022/04/30 01:39:10;;;;;;;;;;;;;;;;;;;;;
2022/04/30 01:41:59;;;;;;;37.70;14.60;;;;;;;5.53;53.09;99844.83;109157;1279;22535;-83
2022/04/30 01:44:40;;;;;;;29.80;14.80;;;;;;;5.58;53.35;99843.40;109066;1279;22423;-83
2022/04/30 01:47:08;;;;;;;31.70;14.30;;;;;;;5.61;53.15;99839.93;108762;1281;22417;-82
2022/04/30 01:49:35;;;;;;;37.40;15.60;;;;;;;5.66;53.50;99843.25;109070;1279;23122;-83
2022/04/30 01:52:36;;;;;;;35.40;15.50;;;;;;;5.66;53.35;99844.66;109159;1279;22448;-82
2022/04/30 01:55:22;;;;;;;44.90;16.80;;;;;;;5.68;53.30;99839.64;109217;1279;22398;-83
2022/04/30 01:58:15;;;;;;;33.10;14.80;;;;;;;5.66;53.39;99835.30;109013;1279;22524;-83
2022/04/30 02:01:15;;;;;;;45.40;17.90;;;;;;;5.61;53.39;99834.08;108879;1280;22390;-82
2022/04/30 02:04:27;;;;;;;54.00;21.70;;;;;;;5.58;53.58;99833.67;109051;1281;22365;-83
2022/04/30 02:07:21;;;;;;;35.80;16.10;;;;;;;5.58;53.69;99824.49;108837;1280;23091;-83
2022/04/30 02:09:51;;;;;;;62.20;22.30;;;;;;;5.57;53.71;99823.33;109087;1279;22470;-83
2022/04/30 02:12:35;;;;;;;42.70;16.80;;;;;;;5.53;53.60;99819.58;108803;1281;22240;-83
2022/04/30 02:15:25;;;;;;;36.50;15.00;;;;;;;5.50;53.91;99817.92;109108;1279;23270;-83
2022/04/30 02:18:00;;;;;;;31.00;14.10;;;;;;;5.53;54.01;99819.21;109021;1279;22450;-83
2022/04/30 02:20:49;;;;;;;34.90;14.40;;;;;;;5.61;53.87;99817.14;109031;1279;22356;-83
2022/04/30 02:23:42;;;;;;;48.80;18.80;;;;;;;5.64;53.89;99814.52;109394;1279;22170;-83
2022/04/30 02:26:12;;;;;;;46.70;17.90;;;;;;;5.67;53.88;99809.48;108825;1281;22477;-83
2022/04/30 02:28:39;;;;;;;53.70;20.60;;;;;;;5.69;54.39;99806.55;109120;1279;22368;-80
2022/04/30 02:31:26;;;;;;;33.70;14.20;;;;;;;5.69;54.19;99810.09;108782;1279;22530;-83
2022/04/30 02:33:56;;;;;;;32.20;14.20;;;;;;;5.68;53.97;99807.66;109182;1279;22507;-82
2022/04/30 02:36:27;;;;;;;29.60;12.60;;;;;;;5.68;54.20;99805.94;108758;1281;22576;-82
2022/04/30 02:39:03;;;;;;;28.40;12.50;;;;;;;5.62;54.07;99800.14;108759;1281;22503;-82
2022/04/30 02:41:45;;;;;;;35.10;13.60;;;;;;;5.55;54.03;99798.48;108795;1280;22388;-82
2022/04/30 02:44:51;;;;;;;;;;;;;;;;;;;;;
2022/04/30 02:48:21;;;;;;;31.80;13.90;;;;;;;5.55;54.30;99785.08;109135;1281;23280;-83
2022/04/30 02:51:14;;;;;;;;;;;;;;;;;;;;;
2022/04/30 02:54:02;;;;;;;24.70;10.90;;;;;;;5.65;54.28;99776.84;108481;1284;22494;-82
2022/04/30 02:56:29;;;;;;;28.20;12.30;;;;;;;5.70;54.34;99777.58;108364;1285;22556;-82
2022/04/30 03:01:51;;;;;;;25.10;11.30;;;;;;;5.76;54.45;99777.88;108410;1285;22403;-82
2022/04/30 03:04:31;;;;;;;29.20;12.00;;;;;;;5.71;54.42;99776.63;108418;1285;22494;-82
2022/04/30 03:06:58;;;;;;;28.70;12.10;;;;;;;5.65;54.36;99772.29;108218;1285;23089;-82
2022/04/30 03:09:28;;;;;;;26.90;10.90;;;;;;;5.58;54.47;99775.23;108269;1285;22398;-82
2022/04/30 03:11:54;;;;;;;23.90;11.70;;;;;;;5.50;54.46;99770.63;108272;1285;23023;-82
2022/04/30 03:15:04;;;;;;;29.80;13.50;;;;;;;5.43;54.47;99772.65;108352;1283;22527;-83
2022/04/30 03:24:32;;;;;;;28.30;12.00;;;;;;;5.32;54.64;99769.73;108281;1284;22485;-82
2022/04/30 03:27:32;;;;;;;26.70;12.20;;;;;;;5.35;54.91;99771.38;108718;1281;22248;-82
2022/04/30 03:30:25;;;;;;;;;;;;;;;;;;;;;
2022/04/30 03:33:08;;;;;;;41.80;17.00;;;;;;;5.35;54.80;99768.54;108955;1278;22351;-82
2022/04/30 03:36:17;;;;;;;;;;;;;;;;;;;;;
2022/04/30 03:39:41;;;;;;;;;;;;;;;;;;;;;
2022/04/30 03:42:36;;;;;;;35.10;14.60;;;;;;;5.38;54.89;99763.86;109383;1279;22585;-83
2022/04/30 03:45:04;;;;;;;39.40;16.70;;;;;;;5.41;54.83;99761.40;108781;1281;22507;-82
2022/04/30 03:47:32;;;;;;;43.40;16.90;;;;;;;5.41;54.84;99762.46;109025;1279;22175;-82
2022/04/30 03:50:02;;;;;;;38.30;14.70;;;;;;;5.47;54.85;99760.83;108792;1279;23131;-82
2022/04/30 03:53:08;;;;;;;;;;;;;;;;;;;;;
2022/04/30 03:56:42;;;;;;;;;;;;;;;;;;;;;
2022/04/30 03:59:45;;;;;;;44.10;16.70;;;;;;;5.57;54.81;99764.84;109405;1278;22464;-83
2022/04/30 04:02:15;;;;;;;31.50;13.00;;;;;;;5.68;55.10;99767.20;109114;1279;22591;-83
2022/04/30 04:04:54;;;;;;;32.60;13.00;;;;;;;5.79;55.04;99764.31;108800;1279;22345;-82
2022/04/30 04:08:10;;;;;;;;;;;;;;;;;;;;;
2022/04/30 04:11:22;;;;;;;;;;;;;;;;;;;;;
2022/04/30 04:20:48;;;;;;;;;;;;;;;;;;;;;
2022/04/30 04:27:42;;;;;;;34.80;14.00;;;;;;;5.99;54.74;99764.59;109396;1279;23044;-83
2022/04/30 04:31:22;;;;;;;;;;;;;;;;;;;;;
2022/04/30 04:35:04;;;;;;;44.30;16.60;;;;;;;6.09;55.20;99766.93;109188;1279;22484;-82
2022/04/30 04:37:44;;;;;;;34.00;14.00;;;;;;;6.19;55.14;99764.91;109161;1279;22398;-82
2022/04/30 04:41:12;;;;;;;;;;;;;;;;;;;;;
2022/04/30 04:44:07;;;;;;;30.80;12.30;;;;;;;6.43;55.61;99761.61;109201;1279;23052;-83
2022/04/30 04:47:18;;;;;;;30.30;12.60;;;;;;;6.57;55.59;99760.27;109374;1279;22819;-82
2022/04/30 04:49:55;;;;;;;;;;;;;;;;;;;;;
2022/04/30 04:52:46;;;;;;;28.90;12.00;;;;;;;6.87;55.58;99754.86;108833;1279;22445;-83
2022/04/30 04:56:11;;;;;;;;;;;;;;;;;;;;;
2022/04/30 04:59:07;;;;;;;26.30;11.80;;;;;;;7.26;55.69;99755.13;109363;1278;22351;-82
2022/04/30 05:01:43;;;;;;;27.70;11.50;;;;;;;7.37;55.72;99752.13;108970;1279;22431;-82
2022/04/30 05:04:32;;;;;;;27.80;12.10;;;;;;;7.54;55.53;99757.35;109099;1279;22553;-82
2022/04/30 05:07:00;;;;;;;26.10;11.20;;;;;;;7.63;55.56;99754.06;109003;1281;22359;-82
2022/04/30 05:09:31;;;;;;;29.70;13.80;;;;;;;7.76;55.61;99756.61;108797;1279;22183;-82
2022/04/30 05:12:01;;;;;;;33.40;15.70;;;;;;;7.81;55.70;99751.23;108812;1279;22502;-82
2022/04/30 05:14:48;;;;;;;;;;;;;;;;;;;;;
2022/04/30 05:17:17;;;;;;;35.50;14.40;;;;;;;8.02;55.71;99751.95;109048;1279;22467;-83
2022/04/30 05:20:09;;;;;;;28.80;13.30;;;;;;;8.10;55.60;99747.95;109151;1279;22406;-83
2022/04/30 05:22:51;;;;;;;30.90;13.10;;;;;;;8.31;55.74;99753.31;109087;1279;22423;-83
2022/04/30 05:25:20;;;;;;;31.70;15.00;;;;;;;8.44;55.67;99754.45;108774;1281;22447;-82
2022/04/30 05:27:48;;;;;;;40.90;15.70;;;;;;;8.56;55.60;99756.64;108562;1279;23185;-82
2022/04/30 05:30:15;;;;;;;31.00;13.80;;;;;;;8.71;55.72;99756.57;109026;1279;22580;-83
2022/04/30 05:32:42;;;;;;;26.10;13.10;;;;;;;8.86;55.65;99756.95;108832;1279;22463;-82
2022/04/30 05:35:31;;;;;;;27.70;13.90;;;;;;;9.03;55.79;99760.00;109021;1279;22571;-83
2022/04/30 05:37:58;;;;;;;30.70;14.10;;;;;;;9.16;55.75;99763.13;109027;1279;22490;-82
2022/04/30 05:40:45;;;;;;;29.00;14.10;;;;;;;9.19;55.58;99761.75;108786;1279;22584;-83
2022/04/30 05:43:15;;;;;;;30.00;13.90;;;;;;;9.30;55.92;99763.80;109387;1279;23246;-83
2022/04/30 05:45:42;;;;;;;34.80;15.40;;;;;;;9.40;55.81;99767.50;108825;1281;22383;-82
2022/04/30 05:48:26;;;;;;;33.50;15.40;;;;;;;9.54;56.05;99762.83;108814;1279;23133;-82
2022/04/30 05:51:09;;;;;;;31.40;15.70;;;;;;;9.74;55.96;99763.63;109135;1280;22377;-82
2022/04/30 05:53:36;;;;;;;28.40;14.40;;;;;;;9.89;55.91;99759.70;108979;1279;22474;-82
2022/04/30 05:56:27;;;;;;;29.70;13.60;;;;;;;10.13;56.07;99755.16;108794;1279;23424;-82
2022/04/30 05:59:26;;;;;;;35.10;14.90;;;;;;;10.34;55.85;99751.42;109436;1279;22426;-83
2022/04/30 06:02:02;;;;;;;31.40;13.20;;;;;;;10.53;55.76;99752.00;109201;1279;22552;-82
2022/04/30 06:04:30;;;;;;;32.00;13.40;;;;;;;10.60;55.75;99749.88;108802;1279;23076;-83
2022/04/30 06:06:58;;;;;;;28.00;12.30;;;;;;;10.71;55.87;99745.60;108865;1279;22381;-83
2022/04/30 06:09:25;;;;;;;29.30;12.00;;;;;;;10.87;56.02;99748.86;109018;1278;22431;-83
2022/04/30 06:11:53;;;;;;;28.60;12.20;;;;;;;11.04;55.98;99747.24;109174;1279;22468;-83
2022/04/30 06:14:20;;;;;;;29.90;13.20;;;;;;;11.21;55.65;99746.02;109172;1279;22503;-83
2022/04/30 06:17:01;;;;;;;31.50;12.60;;;;;;;11.35;55.54;99752.59;109013;1278;22224;-83
2022/04/30 06:19:29;;;;;;;25.00;12.50;;;;;;;11.42;55.66;99750.75;108873;1279;22368;-82
2022/04/30 06:21:59;;;;;;;25.50;12.40;;;;;;;11.55;55.51;99751.84;108838;1279;22478;-83
2022/04/30 06:24:26;;;;;;;32.30;13.10;;;;;;;11.64;55.62;99746.10;108849;1279;23037;-83
2022/04/30 06:27:13;;;;;;;27.70;12.40;;;;;;;11.75;55.59;99749.63;109166;1279;22271;-82
2022/04/30 06:29:54;;;;;;;28.80;12.30;;;;;;;11.91;55.53;99746.47;109061;1279;22509;-83
2022/04/30 06:32:24;;;;;;;45.80;18.20;;;;;;;12.11;55.53;99749.23;109010;1279;22438;-83
2022/04/30 06:35:02;;;;;;;28.30;12.90;;;;;;;12.26;55.29;99741.09;109000;1279;22434;-83
2022/04/30 06:37:53;;;;;;;27.20;12.40;;;;;;;12.42;55.30;99743.16;108853;1281;22497;-82
2022/04/30 06:40:20;;;;;;;24.80;11.50;;;;;;;12.55;55.31;99740.69;109178;1281;23321;-82
2022/04/30 06:42:47;;;;;;;40.70;16.20;;;;;;;12.77;55.22;99739.54;108799;1280;22375;-83
2022/04/30 06:45:16;;;;;;;21.20;10.10;;;;;;;12.95;55.08;99742.81;108862;1279;22475;-83
2022/04/30 06:47:44;;;;;;;20.00;8.70;;;;;;;13.15;54.77;99746.58;109035;1280;22184;-83
2022/04/30 06:50:11;;;;;;;21.40;9.70;;;;;;;13.42;54.67;99746.09;108689;1281;22593;-83
2022/04/30 06:58:53;;;;;;;26.60;12.70;;;;;;;14.05;54.03;99756.15;108925;1279;22592;-83
2022/04/30 07:04:16;;;;;;;;;;;;;;;;;;;;;
2022/04/30 07:07:08;;;;;;;;;;;;;;;;;;;;;
2022/04/30 07:09:37;;;;;;;26.70;13.90;;;;;;;14.63;53.32;99749.52;109190;1281;22407;-84
2022/04/30 07:12:07;;;;;;;81.60;36.20;;;;;;;14.74;53.37;99747.25;108879;1279;23023;-83
2022/04/30 07:14:36;;;;;;;33.10;16.70;;;;;;;14.76;53.29;99744.42;109006;1281;22497;-83
2022/04/30 07:17:12;;;;;;;36.00;19.80;;;;;;;14.83;53.33;99749.02;108898;1281;22980;-84
2022/04/30 07:20:01;;;;;;;32.40;15.50;;;;;;;15.04;53.52;99750.75;109123;1279;22383;-82
2022/04/30 07:22:46;;;;;;;25.00;12.30;;;;;;;15.20;53.42;99742.01;109171;1279;22357;-83
2022/04/30 07:25:18;;;;;;;20.70;11.70;;;;;;;15.39;53.59;99744.56;108693;1279;23166;-83
2022/04/30 07:27:46;;;;;;;50.20;22.80;;;;;;;15.55;53.44;99734.79;108884;1281;22421;-84
2022/04/30 07:30:16;;;;;;;17.50;9.30;;;;;;;15.66;53.20;99743.95;109151;1279;22434;-82
2022/04/30 07:32:43;;;;;;;16.00;8.40;;;;;;;15.72;53.08;99741.76;109001;1279;22368;-83
2022/04/30 07:35:10;;;;;;;48.20;22.80;;;;;;;15.84;53.16;99746.31;108984;1279;22399;-83
2022/04/30 07:37:36;;;;;;;17.60;9.20;;;;;;;15.93;53.24;99747.50;108967;1281;22402;-83
2022/04/30 07:40:04;;;;;;;20.40;11.10;;;;;;;16.08;53.11;99749.33;108785;1281;22508;-83
2022/04/30 07:42:33;;;;;;;16.40;8.50;;;;;;;16.21;53.18;99746.23;108781;1281;22461;-83
2022/04/30 07:45:00;;;;;;;15.00;7.80;;;;;;;16.41;52.96;99749.71;109028;1281;23152;-82
2022/04/30 07:47:30;;;;;;;14.60;7.30;;;;;;;16.54;52.84;99750.27;109012;1277;22445;-82
2022/04/30 07:49:57;;;;;;;19.10;8.00;;;;;;;16.60;52.66;99745.98;109268;1277;22208;-81
2022/04/30 07:52:25;;;;;;;16.40;7.30;;;;;;;16.74;52.52;99748.20;108927;1280;22512;-82
2022/04/30 07:55:13;;;;;;;17.00;7.80;;;;;;;16.80;52.44;99748.77;109160;1277;23172;-82
2022/04/30 07:57:43;;;;;;;16.90;7.40;;;;;;;16.85;52.33;99746.82;109032;1277;22345;-81
2022/04/30 08:00:39;;;;;;;;;;;;;;;;;;;;;
2022/04/30 08:03:45;;;;;;;18.10;8.70;;;;;;;16.95;52.15;99745.98;109289;1277;22510;-82
2022/04/30 08:06:59;;;;;;;18.00;8.20;;;;;;;17.12;52.29;99749.31;109096;1277;22601;-84
2022/04/30 08:10:15;;;;;;;;;;;;;;;;;;;;;
2022/04/30 08:13:03;;;;;;;15.00;8.10;;;;;;;17.55;52.05;99754.84;108562;1284;22500;-83
2022/04/30 08:15:30;;;;;;;17.20;8.00;;;;;;;17.74;52.25;99753.88;108259;1287;22483;-83
2022/04/30 08:17:57;;;;;;;29.80;12.00;;;;;;;17.93;51.84;99755.55;108370;1285;22397;-83
2022/04/30 08:20:24;;;;;;;17.50;8.90;;;;;;;18.03;51.79;99756.08;108293;1286;22228;-84
2022/04/30 08:22:51;;;;;;;21.30;9.10;;;;;;;18.17;51.57;99753.73;108298;1286;22518;-83
2022/04/30 08:25:39;;;;;;;19.50;7.90;;;;;;;18.25;51.41;99755.81;108429;1284;22289;-83
2022/04/30 08:28:12;;;;;;;14.90;7.90;;;;;;;18.37;51.34;99753.33;108466;1282;23195;-83
2022/04/30 08:30:39;;;;;;;37.30;14.70;;;;;;;18.33;50.89;99745.16;108471;1284;23036;-82
2022/04/30 08:33:12;;;;;;;20.10;8.70;;;;;;;18.34;51.13;99747.48;108313;1284;23125;-83
2022/04/30 08:36:00;;;;;;;17.50;7.80;;;;;;;18.44;51.28;99746.13;108562;1283;22463;-79
2022/04/30 08:38:36;;;;;;;15.90;8.00;;;;;;;18.58;51.15;99745.34;108553;1284;22406;-83
2022/04/30 08:41:03;;;;;;;16.40;7.40;;;;;;;18.68;51.20;99744.64;108215;1284;22484;-82
2022/04/30 08:43:32;;;;;;;19.50;9.00;;;;;;;18.77;51.06;99743.40;108558;1284;22494;-82
2022/04/30 08:46:00;;;;;;;18.10;8.90;;;;;;;18.83;50.69;99738.90;108333;1284;22412;-82
2022/04/30 08:48:30;;;;;;;18.10;7.60;;;;;;;18.88;50.60;99736.52;108295;1284;22441;-83
2022/04/30 08:51:03;;;;;;;31.60;13.50;;;;;;;18.95;50.57;99734.14;108805;1277;22481;-84
2022/04/30 08:53:43;;;;;;;18.70;7.90;;;;;;;19.10;50.62;99736.46;109134;1277;23060;-84
2022/04/30 08:56:31;;;;;;;13.80;6.00;;;;;;;19.26;50.35;99731.45;108776;1281;22415;-85
2022/04/30 08:59:06;;;;;;;16.70;5.70;;;;;;;19.31;50.05;99733.89;108962;1278;22617;-82
2022/04/30 09:02:07;;;;;;;18.20;7.90;;;;;;;19.32;50.09;99723.79;109121;1277;22213;-83
2022/04/30 09:04:46;;;;;;;14.80;6.30;;;;;;;19.45;50.04;99731.90;109088;1277;22454;-83
2022/04/30 09:07:16;;;;;;;13.80;6.50;;;;;;;19.53;49.99;99724.08;109190;1279;22318;-83
2022/04/30 09:10:06;;;;;;;12.90;5.70;;;;;;;19.63;50.01;99723.27;108986;1279;22478;-84
2022/04/30 09:12:33;;;;;;;13.00;5.40;;;;;;;19.74;49.56;99726.58;109132;1277;22407;-84
2022/04/30 09:15:29;;;;;;;13.80;5.00;;;;;;;19.74;49.19;99730.07;109290;1277;22440;-82
2022/04/30 09:18:08;;;;;;;13.80;5.10;;;;;;;19.69;48.91;99725.98;109043;1277;22581;-83
2022/04/30 09:20:58;;;;;;;14.20;5.80;;;;;;;19.53;48.61;99730.57;109192;1277;22410;-84
2022/04/30 09:23:34;;;;;;;22.10;9.30;;;;;;;19.57;49.00;99730.93;109086;1277;22414;-85
2022/04/30 09:26:06;;;;;;;14.10;4.80;;;;;;;19.67;48.78;99726.65;109037;1279;23244;-84
2022/04/30 09:28:38;;;;;;;12.80;4.80;;;;;;;19.72;48.41;99721.50;109030;1278;22482;-82
2022/04/30 09:31:06;;;;;;;11.90;5.10;;;;;;;19.72;48.29;99716.09;109159;1278;22457;-82
2022/04/30 09:37:41;;;;;;;11.40;4.50;;;;;;;19.75;48.24;99719.78;109245;1277;22483;-84
2022/04/30 09:40:28;;;;;;;12.60;4.90;;;;;;;19.53;48.16;99718.92;109399;1277;22541;-78
2022/04/30 09:43:08;;;;;;;16.00;4.60;;;;;;;19.55;47.89;99720.45;109269;1278;22458;-83
2022/04/30 09:45:56;;;;;;;10.40;4.00;;;;;;;19.59;48.02;99720.30;109324;1277;22451;-83
2022/04/30 09:54:19;;;;;;;12.40;4.60;;;;;;;19.92;47.46;99717.86;109061;1277;23831;-81
2022/04/30 09:56:59;;;;;;;10.50;4.30;;;;;;;19.94;47.43;99718.63;109070;1277;22520;-79
2022/04/30 09:59:27;;;;;;;11.60;4.30;;;;;;;19.97;47.14;99715.73;109220;1277;23059;-81
2022/04/30 10:01:54;;;;;;;12.70;4.20;;;;;;;19.94;47.05;99713.00;109105;1277;23215;-79
2022/04/30 10:04:28;;;;;;;12.50;5.80;;;;;;;20.00;46.84;99716.54;108984;1277;22452;-81
2022/04/30 10:07:32;;;;;;;;;;;;;;;;;;;;;
2022/04/30 10:10:50;;;;;;;15.90;7.20;;;;;;;20.34;46.98;99713.05;109279;1277;22454;-79
2022/04/30 10:13:41;;;;;;;13.30;5.00;;;;;;;20.57;46.95;99710.34;109225;1277;23065;-82
2022/04/30 10:16:21;;;;;;;11.70;4.90;;;;;;;20.87;46.89;99702.90;109205;1278;22513;-82
2022/04/30 10:19:15;;;;;;;14.10;7.60;;;;;;;21.24;46.48;99703.65;109132;1277;22534;-81
2022/04/30 10:22:12;;;;;;;13.90;6.60;;;;;;;21.48;46.70;99703.73;109209;1279;22227;-80
2022/04/30 10:25:14;;;;;;;10.60;4.40;;;;;;;21.82;46.44;99696.55;109246;1277;22481;-82
2022/04/30 10:28:49;;;;;;;15.00;6.70;;;;;;;22.02;46.13;99693.84;109042;1280;22502;-81
2022/04/30 10:31:32;;;;;;;12.90;5.40;;;;;;;22.20;45.88;99680.58;109063;1279;22407;-82
2022/04/30 10:34:07;;;;;;;15.20;7.10;;;;;;;22.41;45.26;99689.80;109064;1277;22375;-82
2022/04/30 10:37:15;;;;;;;25.80;11.70;;;;;;;22.50;45.59;99680.12;109221;1277;22472;-79
2022/04/30 10:39:51;;;;;;;31.50;14.00;;;;;;;22.71;45.45;99684.86;108799;1277;22133;-84
2022/04/30 10:42:41;;;;;;;12.40;4.70;;;;;;;22.39;43.84;99680.11;109269;1277;23176;-82
2022/04/30 10:45:12;;;;;;;11.50;4.40;;;;;;;21.99;44.91;99688.52;109399;1277;22489;-82
2022/04/30 10:47:58;;;;;;;10.10;3.70;;;;;;;22.15;45.20;99684.56;109284;1279;22160;-81
2022/04/30 10:50:28;;;;;;;15.00;6.40;;;;;;;22.22;44.74;99682.04;109070;1277;22463;-82
2022/04/30 10:53:00;;;;;;;13.70;5.00;;;;;;;22.19;44.86;99681.98;108964;1281;22432;-78
2022/04/30 10:55:30;;;;;;;10.60;4.50;;;;;;;22.12;44.77;99680.74;108905;1281;22359;-80
2022/04/30 10:57:59;;;;;;;9.70;3.30;;;;;;;22.13;44.43;99676.29;108912;1281;22432;-82
2022/04/30 11:00:26;;;;;;;20.80;8.50;;;;;;;22.20;44.52;99674.80;108925;1279;22399;-79
2022/04/30 11:03:19;;;;;;;19.00;4.20;;;;;;;22.16;43.97;99674.86;108928;1279;22375;-81
2022/04/30 11:05:56;;;;;;;6.10;1.90;;;;;;;21.77;43.66;99675.88;109313;1279;22981;-80
2022/04/30 11:08:31;;;;;;;6.40;2.20;;;;;;;21.43;43.40;99669.79;108676;1281;22474;-81
2022/04/30 11:11:08;;;;;;;9.80;4.40;;;;;;;21.22;43.34;99666.20;109021;1279;22414;-82
2022/04/30 11:13:35;;;;;;;8.50;3.00;;;;;;;21.15;43.61;99669.86;108816;1279;22326;-81
2022/04/30 11:16:23;;;;;;;13.50;5.70;;;;;;;21.23;43.15;99659.77;108815;1280;22429;-79
2022/04/30 11:19:03;;;;;;;24.80;10.40;;;;;;;21.11;43.03;99662.37;109025;1279;23099;-80
2022/04/30 11:21:35;;;;;;;25.20;9.90;;;;;;;21.08;43.12;99660.81;108939;1279;22469;-83
2022/04/30 11:24:11;;;;;;;24.40;9.60;;;;;;;21.08;43.03;99656.38;109241;1279;22362;-80
2022/04/30 11:26:52;;;;;;;16.00;5.30;;;;;;;21.09;42.71;99650.41;108817;1280;22980;-82
2022/04/30 11:29:22;;;;;;;10.70;4.40;;;;;;;21.13;42.91;99652.33;108846;1281;22537;-79
2022/04/30 11:31:56;;;;;;;19.30;7.30;;;;;;;21.15;42.62;99649.65;108886;1279;22531;-82
2022/04/30 11:34:32;;;;;;;13.80;4.30;;;;;;;21.12;42.57;99656.94;108821;1281;22312;-80
2022/04/30 11:37:30;;;;;;;16.70;5.80;;;;;;;21.10;42.53;99657.02;108786;1279;22576;-82
2022/04/30 11:40:31;;;;;;;11.30;4.90;;;;;;;20.93;42.31;99655.36;101791;1279;22475;-82
2022/04/30 11:43:02;;;;;;;12.30;4.40;;;;;;;20.82;42.15;99640.85;108824;1281;22614;-83
2022/04/30 11:45:31;;;;;;;9.20;3.40;;;;;;;20.70;42.04;99655.79;109007;1279;22463;-81
2022/04/30 11:48:10;;;;;;;13.10;5.90;;;;;;;20.68;41.91;99652.71;108905;1279;22438;-78
2022/04/30 11:50:50;;;;;;;15.10;6.30;;;;;;;21.01;42.04;99645.21;108926;1279;22365;-82
2022/04/30 11:53:27;;;;;;;12.00;6.40;;;;;;;21.42;42.15;99630.65;109151;1279;22646;-80
2022/04/30 11:56:00;;;;;;;10.00;5.00;;;;;;;21.80;41.67;99625.29;108932;1279;22406;-79
2022/04/30 11:58:45;;;;;;;8.70;3.40;;;;;;;22.04;41.36;99625.41;108949;1279;23208;-81
2022/04/30 12:01:29;;;;;;;9.50;3.50;;;;;;;22.21;40.83;99623.71;109014;1279;22456;-77
2022/04/30 12:04:11;;;;;;;8.80;3.50;;;;;;;22.33;40.90;99617.98;108956;1279;22205;-81
2022/04/30 12:06:43;;;;;;;9.40;3.40;;;;;;;22.41;40.66;99617.80;109058;1279;22465;-82
2022/04/30 12:09:13;;;;;;;17.20;6.90;;;;;;;22.45;40.28;99611.54;108846;1279;22183;-80
2022/04/30 12:11:41;;;;;;;10.80;4.00;;;;;;;22.35;40.42;99612.83;109120;1279;22828;-80
2022/04/30 12:14:20;;;;;;;11.40;4.30;;;;;;;22.38;40.36;99612.00;108773;1281;22451;-81
2022/04/30 12:16:49;;;;;;;8.50;3.10;;;;;;;22.42;40.60;99608.36;109054;1279;22424;-82
2022/04/30 12:26:13;;;;;;;16.50;10.10;;;;;;;22.00;40.14;99611.69;109198;1278;22303;-82
2022/04/30 12:29:04;;;;;;;11.30;5.80;;;;;;;21.99;39.85;99611.09;108802;1279;22663;-82
2022/04/30 12:32:09;;;;;;;14.90;6.40;;;;;;;21.69;39.39;99602.85;109127;1278;22551;-82
2022/04/30 12:35:02;;;;;;;;;;;;;;;;;;;;;
2022/04/30 12:37:33;;;;;;;10.60;5.50;;;;;;;21.06;38.89;99604.54;108991;1279;22214;-82
2022/04/30 12:40:05;;;;;;;10.40;4.90;;;;;;;20.79;39.31;99612.13;108932;1279;23132;-82
2022/04/30 12:42:37;;;;;;;9.90;2.90;;;;;;;20.86;39.36;99608.20;108922;1281;22427;-82
2022/04/30 12:45:05;;;;;;;8.90;3.10;;;;;;;20.81;39.17;99605.75;108894;1279;22459;-82
2022/04/30 12:47:32;;;;;;;9.20;3.10;;;;;;;20.92;39.67;99602.63;109245;1279;22335;-82
2022/04/30 12:49:59;;;;;;;7.60;3.50;;;;;;;20.98;39.02;99596.59;109264;1278;22338;-81
2022/04/30 12:52:29;;;;;;;9.00;2.90;;;;;;;20.78;38.48;99597.84;108819;1280;22382;-81
2022/04/30 12:55:05;;;;;;;9.00;3.10;;;;;;;20.51;38.28;99596.90;108994;1279;22188;-80
2022/04/30 12:57:35;;;;;;;13.60;6.80;;;;;;;20.34;38.58;99593.91;109125;1279;22354;-82
2022/04/30 13:00:10;;;;;;;15.60;6.50;;;;;;;20.37;38.34;99596.80;108996;1279;22363;-82
2022/04/30 13:02:53;;;;;;;10.10;4.20;;;;;;;20.34;38.60;99589.58;109175;1279;22445;-81
2022/04/30 13:05:20;;;;;;;7.40;2.70;;;;;;;20.29;38.61;99592.64;109071;1279;22413;-82
2022/04/30 13:07:53;;;;;;;6.70;2.50;;;;;;;20.24;38.28;99592.90;109001;1281;23088;-79
2022/04/30 13:15:54;;;;;;;9.90;3.20;;;;;;;20.27;38.07;99581.74;108972;1278;23153;-80
2022/04/30 13:18:32;;;;;;;8.80;4.00;;;;;;;20.38;37.59;99577.01;108824;1281;22230;-82
2022/04/30 13:21:03;;;;;;;8.30;3.50;;;;;;;20.35;37.98;99574.05;109406;1277;22470;-80
2022/04/30 13:23:35;;;;;;;8.50;3.30;;;;;;;20.52;37.55;99574.34;108975;1279;22472;-81
2022/04/30 13:26:03;;;;;;;11.00;3.20;;;;;;;20.52;37.17;99569.60;108974;1279;22443;-79
2022/04/30 13:28:30;;;;;;;10.10;3.40;;;;;;;20.53;37.21;99566.65;108945;1279;22380;-79
2022/04/30 13:30:58;;;;;;;11.10;3.30;;;;;;;20.38;37.34;99566.13;108964;1279;22992;-82
2022/04/30 13:33:27;;;;;;;12.10;4.50;;;;;;;20.40;37.53;99573.89;108801;1281;22512;-81
2022/04/30 13:35:55;;;;;;;14.20;4.90;;;;;;;20.37;37.95;99569.77;108821;1280;22337;-82
2022/04/30 13:38:22;;;;;;;10.20;3.30;;;;;;;20.41;37.39;99571.69;109230;1279;23178;-80
2022/04/30 13:40:53;;;;;;;9.40;3.40;;;;;;;20.18;37.14;99570.59;109175;1279;22372;-81
2022/04/30 13:43:24;;;;;;;8.70;3.90;;;;;;;19.91;37.32;99563.27;109089;1279;23166;-82
2022/04/30 13:45:52;;;;;;;9.90;4.10;;;;;;;19.68;37.22;99564.20;108818;1279;23222;-83
2022/04/30 13:48:19;;;;;;;16.80;6.00;;;;;;;19.55;37.51;99564.11;108768;1280;22428;-81
2022/04/30 13:50:46;;;;;;;14.10;4.80;;;;;;;19.49;37.63;99558.88;108778;1281;22435;-82
2022/04/30 13:53:13;;;;;;;8.00;3.00;;;;;;;19.47;37.29;99560.02;108787;1281;22553;-82
2022/04/30 13:55:41;;;;;;;9.60;3.40;;;;;;;19.26;36.97;99555.76;108786;1279;22373;-82
2022/04/30 13:58:08;;;;;;;8.50;3.10;;;;;;;19.10;37.19;99564.77;109398;1278;22174;-82
2022/04/30 14:00:35;;;;;;;9.90;3.30;;;;;;;19.01;37.01;99556.52;108778;1279;22457;-82